Airfield :
LOGIN :

Register | Disclaimer

   EN    FR    IT 

 










Legend :    VFR   Marginal VFR   IFR   Intensive IFR   Very Intensive IFR
Visi :
Ceiling :
>= 8 km
>= 3000ft
5 to 8 km
1000 to 3000 ft
1500m to 5 km
500 to 1000 ft
800 to 1500m
200 to 500 ft
< 800m
< 200 ft
Symbols :   Thunderstorms  Fog  Heavy snow  Heavy precipitations  Wind > 20 kt
SIGMETs :     Misc.  Thunderstorms  Icing  Turbulence  Mountain Waves  Volcanic Ashes






- Airport Elevation : 697 ft
- IATA code : PEG


LIRZ - San Edigio Perugia

CURRENT METAR :
  • 290750Z AUTO 03008KT 360V060 9999 FEW078/// 20/16 Q1004

EXPIRED METARs :
  • 290720Z AUTO 35009KT 9999 VCTS FEW075/// SCT100/// 18/16 Q1004
  • 290650Z AUTO 34007KT 9999 FEW074/// BKN100/// 18/16 Q1004
  • 290620Z AUTO 32003KT 9999 -RA FEW039/// SCT076/// BKN100/// 18/15 Q1004 RERA
  • 290550Z AUTO 08009KT 050V110 3000 RA BR FEW054/// OVC080/// 18/15 Q1004
  • 290520Z AUTO 08013KT 050V120 9999 -RA FEW036/// BKN100/// 17/15 Q1003

TAF TAF LIRZ
Valid from the 29 at 06:00 until the 30 at 06:00 UTC


290500Z 2906/3006 06010KT 9999 FEW050
BECMG 2906/2908 VRB05KT
BECMG 2910/2912 20010KT
TEMPO 2912/2920 4000 TSRA BKN010
BECMG 2913/2915 05012KT
BECMG 2919/2921 VRB05KT



MET'MAP, your aeronautical weather chart ! - Copyright ORBIFLY December 2007 - Disclaimer

ORBIFLY MET'MAP TEAM :

Programming & Development : Alexandra Zaïnal
Original concept : Baudouin d'Aumeries
Technical & hardware support : Manuel Goepfert
Assistance : Marc-Olivier Méhu

Contact : metmap@orbifly.com




SOURCES & CREDITS :

   NOAA